createdAt,value
2018-08-20T00:04:34.694Z,11.60
2018-08-20T00:20:08.949Z,13.57
2018-08-20T00:35:43.263Z,12.93
2018-08-20T00:51:18.278Z,14.97
2018-08-20T01:06:52.836Z,11.93
2018-08-20T01:22:27.315Z,8.13
2018-08-20T01:38:03.038Z,10.77
2018-08-20T01:53:36.603Z,10.80
2018-08-20T02:09:11.087Z,12.80
2018-08-20T02:24:45.726Z,9.87
2018-08-20T02:40:21.565Z,9.63
2018-08-20T02:55:55.954Z,9.53
2018-08-20T03:11:30.749Z,9.87
2018-08-20T03:27:04.533Z,11.83
2018-08-20T03:42:38.379Z,14.73
2018-08-20T03:58:12.890Z,11.67
2018-08-20T04:13:47.471Z,13.73
2018-08-20T04:29:21.757Z,15.10
2018-08-20T04:44:56.517Z,11.07
2018-08-20T05:00:31.895Z,14.53
2018-08-20T05:16:07.549Z,21.10
2018-08-20T05:31:42.307Z,24.20
2018-08-20T05:47:16.193Z,16.20
2018-08-20T06:02:50.701Z,14.03
2018-08-20T06:18:25.090Z,22.43
2018-08-20T06:33:59.206Z,26.40
2018-08-20T06:49:33.651Z,21.77
2018-08-20T07:05:08.328Z,20.60
2018-08-20T07:20:42.373Z,21.23
2018-08-20T07:36:16.774Z,12.70
2018-08-20T07:51:51.267Z,13.87
2018-08-20T08:07:25.684Z,9.37
2018-08-20T08:23:00.516Z,15.83
2018-08-20T08:38:34.899Z,10.37
2018-08-20T08:54:09.322Z,8.47
2018-08-20T09:09:42.808Z,7.67
2018-08-20T09:25:18.505Z,6.07
2018-08-20T09:40:52.720Z,10.10
2018-08-20T09:56:27.258Z,12.27
2018-08-20T10:12:01.501Z,14.63
2018-08-20T10:27:36.117Z,11.07
2018-08-20T10:43:10.151Z,12.13
2018-08-20T10:58:44.417Z,9.27
2018-08-20T11:14:17.888Z,9.70
2018-08-20T11:29:51.758Z,8.67
2018-08-20T11:45:27.399Z,7.37
2018-08-20T12:01:02.161Z,16.87
2018-08-20T12:16:36.681Z,10.50
2018-08-20T12:32:10.964Z,8.93
2018-08-20T12:47:44.789Z,10.90
2018-08-20T13:03:28.469Z,12.57
2018-08-20T13:19:02.651Z,11.73
2018-08-20T13:34:37.015Z,12.23
2018-08-20T13:50:19.948Z,14.13
2018-08-20T14:05:54.504Z,10.77
2018-08-20T14:21:37.236Z,10.23
2018-08-20T14:53:06.792Z,10.53
2018-08-20T15:08:40.916Z,11.77
2018-08-20T15:24:14.113Z,15.50
2018-08-20T15:39:48.063Z,14.00
2018-08-20T15:55:22.530Z,10.33
2018-08-20T16:10:55.956Z,10.03
2018-08-20T16:26:30.634Z,11.23
2018-08-20T16:42:04.984Z,12.83
2018-08-20T16:57:38.292Z,12.23
2018-08-20T17:13:12.745Z,14.13
2018-08-20T17:28:47.523Z,11.50
2018-08-20T17:44:21.808Z,13.67
2018-08-20T17:59:56.240Z,11.43
2018-08-20T18:15:31.736Z,14.03
2018-08-20T18:31:12.918Z,9.93
2018-08-20T18:46:46.995Z,9.37
2018-08-20T19:02:26.490Z,8.13
2018-08-20T19:18:01.155Z,9.47
2018-08-20T19:33:37.671Z,9.93
2018-08-20T19:49:16.153Z,8.60
2018-08-20T20:04:50.908Z,8.60
2018-08-20T20:20:25.412Z,8.63
2018-08-20T20:36:00.074Z,6.67
2018-08-20T20:51:34.634Z,6.70
2018-08-20T21:07:08.654Z,7.60
2018-08-20T21:22:42.725Z,8.67
2018-08-20T21:38:17.297Z,10.93
2018-08-20T21:53:51.990Z,11.87
2018-08-20T22:09:24.974Z,16.60
2018-08-20T22:25:04.300Z,13.63
2018-08-20T22:40:38.772Z,14.50
2018-08-20T22:56:23.477Z,17.93
2018-08-20T23:12:03.938Z,12.73
2018-08-20T23:27:48.994Z,12.50
2018-08-20T23:43:23.045Z,17.47
2018-08-20T23:58:57.599Z,17.00
